createdAt,value
2017-11-16T00:00:59.174Z,8.6
2017-11-16T00:01:59.835Z,8.7
2017-11-16T00:03:00.479Z,8.6
2017-11-16T00:04:01.135Z,8.6
2017-11-16T00:05:01.825Z,8.6
2017-11-16T00:06:02.473Z,8.6
2017-11-16T00:07:03.124Z,8.6
2017-11-16T00:08:03.776Z,8.6
2017-11-16T00:09:04.426Z,8.6
2017-11-16T00:10:05.081Z,8.6
2017-11-16T00:11:05.734Z,8.5
2017-11-16T00:12:06.384Z,8.6
2017-11-16T00:13:07.035Z,8.5
2017-11-16T00:14:07.689Z,8.6
2017-11-16T00:15:08.339Z,8.5
2017-11-16T00:16:08.992Z,8.6
2017-11-16T00:17:09.643Z,8.5
2017-11-16T00:18:10.297Z,8.5
2017-11-16T00:19:10.947Z,8.5
2017-11-16T00:20:11.598Z,8.6
2017-11-16T00:21:12.252Z,8.6
2017-11-16T00:22:12.903Z,8.5
2017-11-16T00:23:13.555Z,8.5
2017-11-16T00:24:14.214Z,8.6
2017-11-16T00:25:14.893Z,8.6
2017-11-16T00:26:15.545Z,8.6
2017-11-16T00:27:16.199Z,8.5
2017-11-16T00:28:16.888Z,8.5
2017-11-16T00:29:17.537Z,8.6
2017-11-16T00:30:18.187Z,8.5
2017-11-16T00:31:18.840Z,8.5
2017-11-16T00:32:19.491Z,8.4
2017-11-16T00:33:20.143Z,8.5
2017-11-16T00:34:20.796Z,8.5
2017-11-16T00:35:21.447Z,8.5
2017-11-16T00:36:22.099Z,8.5
2017-11-16T00:37:22.786Z,8.5
2017-11-16T00:38:23.438Z,8.4
2017-11-16T00:39:24.126Z,8.4
2017-11-16T00:40:24.778Z,8.5
2017-11-16T00:41:25.430Z,8.5
2017-11-16T00:42:26.083Z,8.5
2017-11-16T00:43:26.734Z,8.5
2017-11-16T00:44:27.386Z,8.5
2017-11-16T00:45:28.039Z,8.5
2017-11-16T00:46:28.690Z,8.5
2017-11-16T00:47:29.341Z,8.5
2017-11-16T00:48:29.993Z,8.5
2017-11-16T00:49:30.645Z,8.5
2017-11-16T00:50:31.299Z,8.4
2017-11-16T00:51:31.950Z,8.5
2017-11-16T00:52:32.651Z,8.5
2017-11-16T00:53:33.302Z,8.5
2017-11-16T00:54:33.954Z,8.4
2017-11-16T00:55:34.606Z,8.4
2017-11-16T00:56:35.260Z,8.5
2017-11-16T00:57:35.911Z,8.5
2017-11-16T00:58:36.563Z,8.5
2017-11-16T00:59:37.214Z,8.5
2017-11-16T01:00:37.867Z,8.4
2017-11-16T01:01:38.555Z,8.5
2017-11-16T01:02:39.212Z,8.5
2017-11-16T01:03:39.858Z,8.5
2017-11-16T01:04:40.512Z,8.4
2017-11-16T01:05:41.162Z,8.5
2017-11-16T01:06:41.813Z,8.5
2017-11-16T01:07:42.465Z,8.4
2017-11-16T01:08:43.117Z,8.5
2017-11-16T01:09:43.768Z,8.5
2017-11-16T01:10:44.421Z,8.5
2017-11-16T01:11:45.108Z,8.5
2017-11-16T01:12:45.759Z,8.4
2017-11-16T01:13:46.413Z,8.4
2017-11-16T01:14:47.064Z,8.4
2017-11-16T01:15:47.716Z,8.4
2017-11-16T01:16:48.374Z,8.3
2017-11-16T01:17:49.020Z,8.4
2017-11-16T01:18:49.674Z,8.4
2017-11-16T01:19:50.322Z,8.4
2017-11-16T01:20:50.974Z,8.5
2017-11-16T01:21:51.626Z,8.4
2017-11-16T01:22:52.275Z,8.5
2017-11-16T01:23:52.928Z,8.4
2017-11-16T01:24:53.587Z,8.5
2017-11-16T01:25:54.231Z,8.4
2017-11-16T01:26:54.885Z,8.5
2017-11-16T01:27:55.535Z,8.5
2017-11-16T01:28:56.187Z,8.5
2017-11-16T01:29:56.837Z,8.4
2017-11-16T01:30:57.496Z,8.5
2017-11-16T01:31:58.141Z,8.5
2017-11-16T01:32:59.093Z,8.4
2017-11-16T01:33:59.744Z,8.5
2017-11-16T01:35:00.396Z,8.5
2017-11-16T01:36:01.049Z,8.5
2017-11-16T01:37:01.701Z,8.5
2017-11-16T01:38:02.354Z,8.4
2017-11-16T01:39:03.005Z,8.3
2017-11-16T01:40:03.659Z,8.3
2017-11-16T01:41:04.310Z,8.2
2017-11-16T01:42:04.962Z,8.2
2017-11-16T01:43:05.613Z,8.3
2017-11-16T01:44:06.266Z,8.1
2017-11-16T01:45:06.917Z,8.1
2017-11-16T01:46:07.568Z,8.1
2017-11-16T01:47:08.222Z,8.0
2017-11-16T01:48:08.874Z,8.0
2017-11-16T01:49:09.524Z,7.9
2017-11-16T01:50:10.176Z,7.8
2017-11-16T01:51:10.829Z,7.8
2017-11-16T01:52:11.479Z,7.8
2017-11-16T01:53:12.130Z,7.7
2017-11-16T01:54:12.782Z,7.6
2017-11-16T01:55:13.434Z,7.5
2017-11-16T01:56:14.085Z,7.4
2017-11-16T01:57:14.737Z,7.4
2017-11-16T01:58:15.389Z,7.3
2017-11-16T01:59:16.040Z,7.2
2017-11-16T02:00:16.691Z,7.2
2017-11-16T02:01:17.341Z,7.2
2017-11-16T02:02:18.030Z,7.2
2017-11-16T02:03:18.681Z,7.2
2017-11-16T02:04:19.332Z,7.0
2017-11-16T02:05:19.986Z,7.1
2017-11-16T02:06:20.672Z,7.0
2017-11-16T02:07:21.324Z,6.9
2017-11-16T02:08:22.013Z,6.9
2017-11-16T02:09:22.663Z,7.0
2017-11-16T02:10:23.314Z,6.9
2017-11-16T02:11:23.969Z,6.9
2017-11-16T02:12:24.618Z,6.9
2017-11-16T02:13:25.268Z,6.8
2017-11-16T02:14:25.920Z,6.7
2017-11-16T02:15:26.571Z,6.8
2017-11-16T02:16:27.223Z,6.8
2017-11-16T02:17:27.875Z,6.7
2017-11-16T02:18:28.526Z,6.8
2017-11-16T02:19:29.179Z,6.7
2017-11-16T02:20:29.833Z,6.7
2017-11-16T02:21:30.484Z,6.6
2017-11-16T02:22:31.137Z,6.7
2017-11-16T02:23:31.789Z,6.6
2017-11-16T02:24:32.443Z,6.6
2017-11-16T02:25:33.094Z,6.7
2017-11-16T02:26:33.781Z,6.6
2017-11-16T02:27:34.472Z,6.6
2017-11-16T02:28:35.123Z,6.6
2017-11-16T02:29:35.775Z,6.6
2017-11-16T02:30:36.427Z,6.6
2017-11-16T02:31:37.117Z,6.6
2017-11-16T02:32:37.767Z,6.5
2017-11-16T02:33:38.419Z,6.4
2017-11-16T02:34:39.074Z,6.5
2017-11-16T02:35:39.728Z,6.4
2017-11-16T02:36:40.381Z,6.4
2017-11-16T02:37:41.028Z,6.4
2017-11-16T02:38:41.680Z,6.3
2017-11-16T02:39:42.333Z,6.3
2017-11-16T02:40:42.984Z,6.3
2017-11-16T02:41:43.635Z,6.4
2017-11-16T02:42:44.288Z,6.3
2017-11-16T02:43:44.941Z,6.4
2017-11-16T02:44:45.592Z,6.5
2017-11-16T02:45:46.245Z,6.5
2017-11-16T02:46:46.895Z,6.5
2017-11-16T02:47:47.549Z,6.6
2017-11-16T02:48:48.202Z,6.6
2017-11-16T02:49:48.857Z,6.6
2017-11-16T02:50:49.542Z,6.7
2017-11-16T02:51:50.193Z,6.7
2017-11-16T02:52:50.844Z,6.8
2017-11-16T02:53:51.494Z,6.9
2017-11-16T02:54:52.149Z,6.9
2017-11-16T02:55:52.799Z,7.0
2017-11-16T02:56:53.452Z,7.0
2017-11-16T02:57:54.102Z,7.1
2017-11-16T02:58:54.755Z,7.1
2017-11-16T02:59:55.406Z,7.2
2017-11-16T03:00:56.059Z,7.2
2017-11-16T03:01:56.711Z,7.2
2017-11-16T03:02:57.364Z,7.2
2017-11-16T03:03:58.067Z,7.2
2017-11-16T03:04:58.719Z,7.2
2017-11-16T03:05:59.403Z,7.2
2017-11-16T03:07:00.056Z,7.2
2017-11-16T03:08:00.705Z,7.3
2017-11-16T03:09:01.369Z,7.3
2017-11-16T03:10:02.048Z,7.3
2017-11-16T03:12:03.349Z,7.3
2017-11-16T03:13:03.999Z,7.4
2017-11-16T03:14:04.653Z,7.4
2017-11-16T03:15:05.303Z,7.4
2017-11-16T03:16:05.954Z,7.5
2017-11-16T03:17:06.604Z,7.5
2017-11-16T03:18:07.254Z,7.5
2017-11-16T03:19:07.904Z,7.5
2017-11-16T03:20:08.592Z,7.5
2017-11-16T03:21:09.244Z,7.5
2017-11-16T03:22:09.895Z,7.6
2017-11-16T03:23:10.545Z,7.5
2017-11-16T03:24:11.197Z,7.6
2017-11-16T03:25:11.847Z,7.7
2017-11-16T03:26:12.499Z,7.7
2017-11-16T03:27:13.150Z,7.6
2017-11-16T03:28:13.802Z,7.6
2017-11-16T03:29:14.454Z,7.6
2017-11-16T03:30:15.105Z,7.7
2017-11-16T03:31:15.757Z,7.7
2017-11-16T03:32:16.443Z,7.7
2017-11-16T03:33:17.096Z,7.7
2017-11-16T03:34:17.746Z,7.8
2017-11-16T03:35:18.399Z,7.8
2017-11-16T03:36:19.049Z,7.7
2017-11-16T03:37:19.701Z,7.7
2017-11-16T03:38:20.353Z,7.7
2017-11-16T03:39:21.005Z,7.7
2017-11-16T03:40:21.662Z,7.7
2017-11-16T03:41:22.308Z,7.7
2017-11-16T03:42:22.998Z,7.6
2017-11-16T03:43:23.647Z,7.8
2017-11-16T03:44:24.300Z,7.6
2017-11-16T03:45:24.951Z,7.7
2017-11-16T03:46:25.603Z,7.6
2017-11-16T03:47:26.290Z,7.8
2017-11-16T03:48:26.941Z,7.7
2017-11-16T03:49:27.593Z,7.7
2017-11-16T03:50:28.245Z,7.7
2017-11-16T03:51:28.896Z,7.7
2017-11-16T03:52:29.548Z,7.8
2017-11-16T03:53:30.201Z,7.7
2017-11-16T03:54:30.851Z,7.7
2017-11-16T03:55:31.503Z,7.7
2017-11-16T03:56:32.155Z,7.7
2017-11-16T03:57:32.806Z,7.8
2017-11-16T03:58:33.458Z,7.8
2017-11-16T03:59:34.109Z,7.7
2017-11-16T04:00:34.762Z,7.8
2017-11-16T04:01:35.412Z,7.7
2017-11-16T04:02:36.064Z,7.8
2017-11-16T04:03:36.714Z,7.8
2017-11-16T04:04:37.372Z,7.8
2017-11-16T04:05:38.016Z,7.7
2017-11-16T04:06:38.668Z,7.7
2017-11-16T04:07:39.321Z,7.7
2017-11-16T04:08:39.970Z,7.7
2017-11-16T04:09:40.624Z,7.7
2017-11-16T04:10:41.277Z,7.8
2017-11-16T04:11:41.928Z,7.7
2017-11-16T04:12:42.580Z,7.7
2017-11-16T04:13:43.228Z,7.7
2017-11-16T04:14:43.879Z,7.8
2017-11-16T04:15:44.539Z,7.8
2017-11-16T04:16:45.224Z,7.8
2017-11-16T04:17:45.879Z,7.7
2017-11-16T04:18:46.529Z,7.8
2017-11-16T04:19:47.226Z,7.8
2017-11-16T04:20:47.868Z,7.8
2017-11-16T04:21:48.520Z,7.9
2017-11-16T04:22:49.173Z,7.8
2017-11-16T04:23:49.824Z,7.9
2017-11-16T04:24:50.475Z,7.9
2017-11-16T04:25:51.130Z,7.9
2017-11-16T04:26:51.776Z,7.9
2017-11-16T04:27:52.428Z,7.9
2017-11-16T04:28:53.078Z,7.9
2017-11-16T04:29:53.732Z,7.9
2017-11-16T04:30:54.383Z,7.9
2017-11-16T04:31:55.034Z,7.9
2017-11-16T04:32:55.685Z,8.0
2017-11-16T04:33:56.371Z,7.9
2017-11-16T04:34:57.025Z,7.9
2017-11-16T04:35:57.673Z,7.8
2017-11-16T04:36:58.334Z,7.9
2017-11-16T04:37:58.977Z,7.9
2017-11-16T04:38:59.628Z,7.8
2017-11-16T04:40:00.279Z,7.9
2017-11-16T04:41:00.934Z,8.0
2017-11-16T04:42:01.582Z,7.8
2017-11-16T04:43:02.233Z,7.8
2017-11-16T04:44:02.887Z,7.9
2017-11-16T04:45:03.537Z,7.9
2017-11-16T04:46:04.212Z,7.9
2017-11-16T04:47:04.840Z,7.8
2017-11-16T04:48:05.495Z,7.9
2017-11-16T04:49:06.144Z,7.9
2017-11-16T04:50:06.797Z,7.9
2017-11-16T04:51:07.448Z,7.9
2017-11-16T04:52:08.106Z,7.8
2017-11-16T04:53:08.751Z,7.8
2017-11-16T04:54:09.402Z,7.7
2017-11-16T04:55:10.054Z,7.7
2017-11-16T04:56:10.705Z,7.7
2017-11-16T04:57:11.357Z,7.8
2017-11-16T04:58:12.008Z,7.8
2017-11-16T04:59:12.661Z,7.6
2017-11-16T05:00:13.312Z,7.7
2017-11-16T05:01:13.964Z,7.6
2017-11-16T05:02:14.614Z,7.6
2017-11-16T05:03:15.266Z,7.6
2017-11-16T05:04:15.964Z,7.6
2017-11-16T05:05:16.604Z,7.7
2017-11-16T05:06:17.255Z,7.6
2017-11-16T05:07:17.907Z,7.6
2017-11-16T05:08:18.556Z,7.7
2017-11-16T05:09:19.210Z,7.6
2017-11-16T05:10:19.860Z,7.7
2017-11-16T05:11:20.512Z,7.7
2017-11-16T05:12:21.163Z,7.6
2017-11-16T05:13:21.819Z,7.6
2017-11-16T05:14:22.466Z,7.6
2017-11-16T05:15:23.116Z,7.7
2017-11-16T05:16:23.769Z,7.6
2017-11-16T05:17:24.420Z,7.5
2017-11-16T05:18:25.071Z,7.6
2017-11-16T05:19:25.721Z,7.6
2017-11-16T05:20:26.387Z,7.5
2017-11-16T05:21:27.025Z,7.5
2017-11-16T05:22:27.676Z,7.5
2017-11-16T05:23:28.327Z,7.6
2017-11-16T05:24:28.984Z,7.6
2017-11-16T05:25:29.629Z,7.5
2017-11-16T05:26:30.281Z,7.6
2017-11-16T05:27:30.934Z,7.5
2017-11-16T05:28:31.584Z,7.6
2017-11-16T05:29:32.236Z,7.6
2017-11-16T05:30:32.889Z,7.6
2017-11-16T05:31:33.540Z,7.6
2017-11-16T05:32:34.191Z,7.6
2017-11-16T05:33:34.842Z,7.6
2017-11-16T05:34:35.492Z,7.6
2017-11-16T05:35:36.150Z,7.6
2017-11-16T05:36:36.797Z,7.6
2017-11-16T05:37:37.453Z,7.5
2017-11-16T05:38:38.136Z,7.5
2017-11-16T05:39:38.788Z,7.5
2017-11-16T05:40:39.438Z,7.5
2017-11-16T05:41:40.089Z,7.4
2017-11-16T05:42:40.742Z,7.4
2017-11-16T05:43:41.391Z,7.4
2017-11-16T05:44:42.044Z,7.3
2017-11-16T05:45:42.695Z,7.3
2017-11-16T05:46:43.349Z,7.3
2017-11-16T05:47:43.998Z,7.4
2017-11-16T05:48:44.651Z,7.3
2017-11-16T05:49:45.301Z,7.4
2017-11-16T05:50:46.003Z,7.3
2017-11-16T05:51:46.653Z,7.4
2017-11-16T05:52:47.305Z,7.3
2017-11-16T05:53:47.956Z,7.4
2017-11-16T05:54:48.610Z,7.4
2017-11-16T05:55:49.297Z,7.3
2017-11-16T05:56:49.948Z,7.3
2017-11-16T05:57:50.599Z,7.3
2017-11-16T05:58:51.251Z,7.3
2017-11-16T05:59:51.902Z,7.3
2017-11-16T06:00:52.552Z,7.2
2017-11-16T06:01:53.204Z,7.2
2017-11-16T06:02:53.852Z,7.3
2017-11-16T06:03:54.503Z,7.3
2017-11-16T06:04:55.154Z,7.2
2017-11-16T06:05:55.805Z,7.2
2017-11-16T06:06:56.457Z,7.2
2017-11-16T06:07:57.114Z,7.2
2017-11-16T06:08:57.760Z,7.2
2017-11-16T06:09:58.410Z,7.4
2017-11-16T06:10:59.061Z,7.2
2017-11-16T06:11:59.714Z,7.4
2017-11-16T06:13:00.365Z,7.2
2017-11-16T06:14:01.052Z,7.3
2017-11-16T06:15:01.705Z,7.3
2017-11-16T06:16:02.392Z,7.3
2017-11-16T06:17:03.045Z,7.3
2017-11-16T06:18:03.695Z,7.3
2017-11-16T06:19:04.354Z,7.3
2017-11-16T06:20:05.000Z,7.3
2017-11-16T06:21:05.653Z,7.2
2017-11-16T06:22:06.304Z,7.3
2017-11-16T06:23:06.959Z,7.2
2017-11-16T06:24:07.610Z,7.2
2017-11-16T06:25:08.263Z,7.2
2017-11-16T06:26:09.253Z,7.3
2017-11-16T06:27:09.908Z,7.2
2017-11-16T06:28:10.560Z,7.2
2017-11-16T06:29:11.212Z,7.2
2017-11-16T06:30:11.898Z,7.4
2017-11-16T06:31:12.550Z,7.2
2017-11-16T06:32:13.201Z,7.2
2017-11-16T06:33:13.854Z,7.2
2017-11-16T06:34:14.508Z,7.3
2017-11-16T06:35:15.163Z,7.2
2017-11-16T06:36:15.816Z,7.3
2017-11-16T06:37:16.504Z,7.3
2017-11-16T06:38:17.158Z,7.4
2017-11-16T06:39:17.811Z,7.4
2017-11-16T06:40:18.462Z,7.3
2017-11-16T06:41:19.116Z,7.3
2017-11-16T06:42:19.769Z,7.3
2017-11-16T06:43:20.423Z,7.3
2017-11-16T06:44:21.075Z,7.3
2017-11-16T06:45:21.729Z,7.3
2017-11-16T06:46:22.382Z,7.3
2017-11-16T06:47:23.038Z,7.4
2017-11-16T06:48:23.690Z,7.3
2017-11-16T06:49:24.342Z,7.3
2017-11-16T06:50:24.996Z,7.4
2017-11-16T06:51:25.649Z,7.3
2017-11-16T06:52:26.302Z,7.3
2017-11-16T06:53:26.961Z,7.3
2017-11-16T06:54:27.615Z,7.3
2017-11-16T06:55:28.260Z,7.3
2017-11-16T06:56:28.925Z,7.3
2017-11-16T06:57:29.571Z,7.3
2017-11-16T06:58:30.225Z,7.3
2017-11-16T06:59:30.879Z,7.4
2017-11-16T07:00:31.533Z,7.3
2017-11-16T07:01:32.193Z,7.3
2017-11-16T07:02:32.877Z,7.4
2017-11-16T07:03:33.542Z,7.4
2017-11-16T07:04:34.188Z,7.4
2017-11-16T07:05:34.847Z,7.4
2017-11-16T07:06:35.499Z,7.5
2017-11-16T07:07:36.153Z,7.5
2017-11-16T07:08:36.808Z,7.5
2017-11-16T07:09:37.462Z,7.6
2017-11-16T07:10:38.116Z,7.5
2017-11-16T07:11:38.772Z,7.6
2017-11-16T07:12:39.429Z,7.5
2017-11-16T07:13:40.083Z,7.6
2017-11-16T07:14:40.737Z,7.6
2017-11-16T07:15:41.391Z,7.6
2017-11-16T07:16:42.048Z,7.7
2017-11-16T07:17:42.703Z,7.6
2017-11-16T07:18:43.357Z,7.6
2017-11-16T07:19:44.018Z,7.7
2017-11-16T07:20:44.667Z,7.7
2017-11-16T07:21:45.324Z,7.7
2017-11-16T07:22:46.014Z,7.8
2017-11-16T07:23:46.668Z,7.7
2017-11-16T07:24:47.323Z,7.7
2017-11-16T07:25:47.976Z,7.7
2017-11-16T07:26:48.683Z,7.8
2017-11-16T07:27:49.339Z,7.8
2017-11-16T07:28:49.994Z,7.8
2017-11-16T07:29:50.649Z,7.7
2017-11-16T07:30:51.306Z,7.7
2017-11-16T07:31:51.959Z,7.7
2017-11-16T07:32:52.617Z,7.7
2017-11-16T07:33:53.270Z,7.7
2017-11-16T07:34:53.924Z,7.7
2017-11-16T07:35:54.583Z,7.7
2017-11-16T07:36:55.233Z,7.7
2017-11-16T07:37:55.888Z,7.7
2017-11-16T07:38:56.541Z,7.7
2017-11-16T07:39:57.196Z,7.7
2017-11-16T07:40:57.849Z,7.7
2017-11-16T07:41:58.506Z,7.7
2017-11-16T07:42:59.198Z,7.9
2017-11-16T07:43:59.853Z,7.9
2017-11-16T07:45:00.509Z,7.8
2017-11-16T07:46:01.164Z,7.8
2017-11-16T07:47:01.821Z,7.8
2017-11-16T07:48:02.476Z,7.8
2017-11-16T07:49:03.167Z,7.7
2017-11-16T07:50:03.828Z,7.7
2017-11-16T07:51:04.476Z,7.7
2017-11-16T07:52:05.140Z,7.8
2017-11-16T07:53:05.788Z,7.8
2017-11-16T07:54:06.456Z,7.8
2017-11-16T07:55:07.101Z,7.8
2017-11-16T07:56:07.757Z,7.9
2017-11-16T07:57:08.412Z,7.9
2017-11-16T07:58:09.067Z,7.9
2017-11-16T07:59:09.725Z,7.9
2017-11-16T08:00:10.382Z,7.9
2017-11-16T08:01:11.037Z,8.0
2017-11-16T08:02:11.729Z,7.9
2017-11-16T08:03:12.384Z,8.0
2017-11-16T08:04:13.041Z,8.0
2017-11-16T08:05:13.698Z,8.0
2017-11-16T08:06:14.353Z,8.0
2017-11-16T08:07:15.010Z,8.0
2017-11-16T08:08:15.668Z,8.0
2017-11-16T08:09:16.320Z,8.0
2017-11-16T08:10:16.978Z,8.0
2017-11-16T08:11:17.635Z,8.1
2017-11-16T08:12:18.328Z,8.1
2017-11-16T08:13:18.982Z,8.0
2017-11-16T08:14:19.637Z,8.0
2017-11-16T08:15:20.293Z,8.0
2017-11-16T08:16:20.952Z,8.0
2017-11-16T08:17:21.607Z,7.9
2017-11-16T08:18:22.272Z,8.0
2017-11-16T08:19:22.956Z,8.0
2017-11-16T08:20:23.610Z,8.1
2017-11-16T08:21:24.267Z,8.1
2017-11-16T08:22:24.921Z,8.1
2017-11-16T08:23:25.577Z,8.2
2017-11-16T08:24:26.233Z,8.3
2017-11-16T08:25:26.888Z,8.3
2017-11-16T08:26:27.548Z,8.2
2017-11-16T08:27:28.203Z,8.3
2017-11-16T08:28:28.860Z,8.4
2017-11-16T08:29:29.516Z,8.4
2017-11-16T08:30:30.174Z,8.5
2017-11-16T08:31:30.840Z,8.5
2017-11-16T08:32:31.486Z,8.5
2017-11-16T08:33:32.144Z,8.5
2017-11-16T08:34:32.799Z,8.5
2017-11-16T08:35:33.454Z,8.5
2017-11-16T08:36:34.111Z,8.6
2017-11-16T08:37:34.776Z,8.6
2017-11-16T08:38:35.423Z,8.6
2017-11-16T08:39:36.085Z,8.8
2017-11-16T08:40:36.736Z,8.8
2017-11-16T08:41:37.392Z,8.8
2017-11-16T08:42:38.399Z,8.9
2017-11-16T08:43:39.057Z,8.9
2017-11-16T08:44:39.714Z,8.9
2017-11-16T08:45:40.372Z,8.9
2017-11-16T08:46:41.028Z,8.9
2017-11-16T08:47:41.691Z,9.0
2017-11-16T08:48:42.342Z,8.9
2017-11-16T08:49:43.001Z,9.0
2017-11-16T08:50:43.659Z,9.0
2017-11-16T08:51:44.311Z,9.1
2017-11-16T08:52:44.968Z,9.1
2017-11-16T08:53:45.625Z,9.2
2017-11-16T08:54:46.279Z,9.2
2017-11-16T08:55:46.937Z,9.2
2017-11-16T08:56:47.594Z,9.2
2017-11-16T08:57:48.250Z,9.3
2017-11-16T08:58:48.908Z,9.3
2017-11-16T08:59:49.564Z,9.3
2017-11-16T09:00:50.219Z,9.2
2017-11-16T09:01:50.878Z,9.2
2017-11-16T09:02:51.570Z,9.3
2017-11-16T09:03:52.228Z,9.3
2017-11-16T09:04:52.922Z,9.3
2017-11-16T09:05:53.577Z,9.4
2017-11-16T09:06:54.237Z,9.3
2017-11-16T09:07:54.930Z,9.4
2017-11-16T09:08:55.589Z,9.5
2017-11-16T09:09:56.244Z,9.5
2017-11-16T09:10:56.899Z,9.5
2017-11-16T09:11:57.558Z,9.5
2017-11-16T09:12:58.213Z,9.5
2017-11-16T09:13:58.872Z,9.4
2017-11-16T09:14:59.530Z,9.4
2017-11-16T09:16:00.185Z,9.3
2017-11-16T09:17:00.842Z,9.4
2017-11-16T09:18:01.505Z,9.4
2017-11-16T09:19:02.159Z,9.4
2017-11-16T09:20:02.820Z,9.3
2017-11-16T09:21:03.475Z,9.2
2017-11-16T09:22:04.140Z,9.3
2017-11-16T09:23:04.790Z,9.3
2017-11-16T09:24:05.445Z,9.3
2017-11-16T09:25:06.102Z,9.2
2017-11-16T09:26:06.760Z,9.3
2017-11-16T09:27:07.423Z,9.2
2017-11-16T09:28:08.080Z,9.1
2017-11-16T09:29:08.738Z,9.1
2017-11-16T09:30:09.393Z,9.1
2017-11-16T09:31:10.085Z,9.0
2017-11-16T09:32:10.745Z,9.1
2017-11-16T09:33:11.402Z,9.1
2017-11-16T09:34:12.064Z,9.0
2017-11-16T09:35:12.713Z,9.1
2017-11-16T09:36:13.371Z,9.1
2017-11-16T09:37:14.026Z,9.2
2017-11-16T09:38:14.719Z,9.2
2017-11-16T09:39:15.377Z,9.1
2017-11-16T09:40:16.035Z,9.2
2017-11-16T09:41:16.697Z,9.2
2017-11-16T09:42:17.351Z,9.2
2017-11-16T09:43:18.008Z,9.2
2017-11-16T09:44:18.663Z,9.3
2017-11-16T09:45:19.319Z,9.3
2017-11-16T09:46:19.976Z,9.2
2017-11-16T09:47:20.634Z,9.3
2017-11-16T09:48:21.290Z,9.4
2017-11-16T09:49:21.947Z,9.3
2017-11-16T09:50:22.605Z,9.3
2017-11-16T09:51:23.266Z,9.4
2017-11-16T09:52:23.917Z,9.4
2017-11-16T09:53:24.576Z,9.4
2017-11-16T09:54:25.231Z,9.5
2017-11-16T09:55:25.927Z,9.4
2017-11-16T09:56:26.582Z,9.4
2017-11-16T09:57:27.239Z,9.4
2017-11-16T09:58:27.897Z,9.4
2017-11-16T09:59:28.553Z,9.3
2017-11-16T10:00:29.211Z,9.3
2017-11-16T10:01:29.868Z,9.3
2017-11-16T10:02:30.525Z,9.3
2017-11-16T10:03:31.180Z,9.2
2017-11-16T10:04:31.838Z,9.1
2017-11-16T10:05:32.498Z,9.1
2017-11-16T10:06:33.155Z,9.2
2017-11-16T10:07:33.813Z,9.2
2017-11-16T10:08:34.519Z,9.2
2017-11-16T10:09:35.175Z,9.2
2017-11-16T10:10:35.847Z,9.2
2017-11-16T10:11:36.491Z,9.2
2017-11-16T10:12:37.149Z,9.3
2017-11-16T10:13:37.807Z,9.4
2017-11-16T10:14:38.467Z,9.3
2017-11-16T10:15:39.125Z,9.3
2017-11-16T10:16:39.782Z,9.4
2017-11-16T10:17:40.440Z,9.4
2017-11-16T10:18:41.100Z,9.5
2017-11-16T10:19:41.755Z,9.5
2017-11-16T10:20:42.415Z,9.4
2017-11-16T10:21:43.074Z,9.5
2017-11-16T10:22:43.732Z,9.5
2017-11-16T10:23:44.389Z,9.6
2017-11-16T10:24:45.047Z,9.7
2017-11-16T10:25:45.706Z,9.6
2017-11-16T10:26:46.363Z,9.7
2017-11-16T10:27:47.059Z,9.7
2017-11-16T10:28:47.967Z,9.6
2017-11-16T10:29:48.662Z,9.7
2017-11-16T10:30:49.321Z,9.6
2017-11-16T10:31:49.980Z,9.7
2017-11-16T10:32:50.640Z,9.7
2017-11-16T10:33:51.298Z,9.7
2017-11-16T10:34:51.956Z,9.6
2017-11-16T10:35:52.615Z,9.6
2017-11-16T10:36:53.273Z,9.7
2017-11-16T10:37:53.932Z,9.6
2017-11-16T10:38:54.589Z,9.5
2017-11-16T10:39:55.250Z,9.6
2017-11-16T10:40:55.909Z,9.6
2017-11-16T10:41:56.594Z,9.7
2017-11-16T10:42:57.252Z,9.7
2017-11-16T10:43:57.914Z,9.8
2017-11-16T10:44:58.571Z,9.8
2017-11-16T10:45:59.228Z,9.8
2017-11-16T10:46:59.886Z,9.8
2017-11-16T10:48:00.553Z,9.8
2017-11-16T10:49:01.203Z,9.8
2017-11-16T10:50:01.862Z,9.8
2017-11-16T10:51:02.558Z,9.7
2017-11-16T10:52:03.216Z,9.7
2017-11-16T10:53:03.874Z,9.8
2017-11-16T10:54:04.533Z,9.7
2017-11-16T10:55:05.192Z,9.8
2017-11-16T10:56:05.850Z,9.8
2017-11-16T10:57:06.544Z,9.8
2017-11-16T10:58:07.201Z,9.9
2017-11-16T10:59:07.859Z,9.9
2017-11-16T11:00:08.518Z,9.8
2017-11-16T11:01:09.175Z,9.9
2017-11-16T11:02:09.834Z,9.9
2017-11-16T11:03:10.491Z,9.8
2017-11-16T11:04:11.199Z,9.8
2017-11-16T11:05:11.855Z,9.8
2017-11-16T11:06:12.512Z,9.8
2017-11-16T11:07:13.206Z,9.8
2017-11-16T11:08:13.864Z,9.8
2017-11-16T11:09:14.522Z,9.8
2017-11-16T11:10:15.180Z,9.8
2017-11-16T11:11:15.836Z,9.7
2017-11-16T11:12:16.493Z,9.7
2017-11-16T11:13:17.150Z,9.7
2017-11-16T11:14:17.809Z,9.7
2017-11-16T11:15:18.468Z,9.7
2017-11-16T11:16:19.124Z,9.5
2017-11-16T11:17:19.781Z,9.5
2017-11-16T11:18:20.438Z,9.5
2017-11-16T11:19:21.094Z,9.3
2017-11-16T11:20:21.757Z,9.3
2017-11-16T11:21:22.448Z,9.4
2017-11-16T11:22:23.103Z,9.4
2017-11-16T11:23:23.761Z,9.3
2017-11-16T11:24:24.417Z,9.3
2017-11-16T11:25:25.077Z,9.3
2017-11-16T11:26:25.736Z,9.3
2017-11-16T11:27:26.392Z,9.3
2017-11-16T11:28:27.073Z,9.4
2017-11-16T11:29:27.742Z,9.3
2017-11-16T11:30:28.400Z,9.4
2017-11-16T11:31:29.058Z,9.3
2017-11-16T11:32:29.718Z,9.4
2017-11-16T11:33:30.382Z,9.4
2017-11-16T11:34:31.034Z,9.4
2017-11-16T11:35:31.693Z,9.3
2017-11-16T11:36:32.351Z,9.3
2017-11-16T11:37:33.010Z,9.4
2017-11-16T11:38:33.703Z,9.5
2017-11-16T11:39:34.361Z,9.5
2017-11-16T11:40:35.017Z,9.5
2017-11-16T11:41:35.676Z,9.5
2017-11-16T11:42:36.333Z,9.4
2017-11-16T11:43:36.993Z,9.5
2017-11-16T11:44:37.653Z,9.5
2017-11-16T11:45:38.311Z,9.5
2017-11-16T11:46:39.005Z,9.5
2017-11-16T11:47:39.663Z,9.5
2017-11-16T11:48:40.320Z,9.5
2017-11-16T11:49:40.979Z,9.4
2017-11-16T11:50:41.639Z,9.5
2017-11-16T11:51:42.297Z,9.5
2017-11-16T11:52:42.954Z,9.6
2017-11-16T11:53:43.613Z,9.5
2017-11-16T11:54:44.273Z,9.5
2017-11-16T11:55:44.929Z,9.6
2017-11-16T11:56:45.588Z,9.5
2017-11-16T11:57:46.247Z,9.5
2017-11-16T11:58:46.903Z,9.3
2017-11-16T11:59:47.613Z,9.4
2017-11-16T12:00:48.268Z,9.3
2017-11-16T12:01:48.924Z,9.2
2017-11-16T12:02:49.580Z,9.3
2017-11-16T12:03:50.240Z,9.3
2017-11-16T12:04:50.898Z,9.3
2017-11-16T12:05:51.561Z,9.2
2017-11-16T12:06:52.212Z,9.2
2017-11-16T12:07:52.871Z,9.2
2017-11-16T12:08:53.574Z,9.2
2017-11-16T12:09:54.522Z,9.2
2017-11-16T12:10:55.179Z,9.1
2017-11-16T12:11:55.870Z,9.2
2017-11-16T12:12:56.528Z,9.1
2017-11-16T12:13:57.191Z,9.0
2017-11-16T12:14:57.844Z,9.0
2017-11-16T12:15:58.503Z,8.9
2017-11-16T12:16:59.159Z,8.9
2017-11-16T12:17:59.817Z,8.9
2017-11-16T12:19:00.473Z,8.9
2017-11-16T12:20:01.129Z,8.9
2017-11-16T12:21:01.792Z,8.9
2017-11-16T12:22:02.444Z,8.8
2017-11-16T12:23:03.102Z,8.9
2017-11-16T12:24:03.758Z,9.0
2017-11-16T12:25:04.415Z,8.9
2017-11-16T12:26:05.073Z,8.9
2017-11-16T12:27:05.731Z,8.9
2017-11-16T12:28:06.387Z,9.0
2017-11-16T12:29:07.044Z,9.0
2017-11-16T12:30:07.704Z,8.9
2017-11-16T12:31:08.359Z,9.0
2017-11-16T12:32:09.049Z,9.0
2017-11-16T12:33:09.671Z,9.0
2017-11-16T12:34:10.371Z,9.0
2017-11-16T12:35:11.021Z,9.0
2017-11-16T12:36:11.678Z,9.0
2017-11-16T12:37:12.335Z,8.9
2017-11-16T12:38:12.993Z,9.1
2017-11-16T12:39:13.650Z,9.0
2017-11-16T12:40:14.306Z,9.0
2017-11-16T12:41:14.964Z,9.0
2017-11-16T12:42:15.622Z,8.9
2017-11-16T12:43:16.287Z,8.9
2017-11-16T12:44:16.941Z,8.9
2017-11-16T12:45:17.595Z,8.9
2017-11-16T12:46:18.251Z,8.9
2017-11-16T12:47:18.907Z,8.8
2017-11-16T12:48:19.567Z,8.8
2017-11-16T12:49:20.221Z,8.7
2017-11-16T12:50:20.879Z,8.8
2017-11-16T12:51:21.535Z,8.7
2017-11-16T12:52:22.192Z,8.7
2017-11-16T12:53:22.850Z,8.7
2017-11-16T12:54:23.509Z,8.8
2017-11-16T12:55:24.165Z,8.8
2017-11-16T12:56:24.824Z,8.9
2017-11-16T12:57:25.483Z,8.9
2017-11-16T12:58:26.141Z,8.8
2017-11-16T12:59:26.797Z,9.0
2017-11-16T13:00:27.455Z,9.0
2017-11-16T13:01:28.112Z,8.9
2017-11-16T13:02:28.767Z,9.1
2017-11-16T13:03:29.426Z,9.0
2017-11-16T13:04:30.086Z,9.0
2017-11-16T13:05:30.749Z,9.0
2017-11-16T13:06:31.397Z,8.9
2017-11-16T13:07:32.055Z,8.9
2017-11-16T13:08:32.750Z,8.9
2017-11-16T13:09:33.407Z,8.9
2017-11-16T13:10:34.065Z,8.9
2017-11-16T13:11:34.721Z,8.9
2017-11-16T13:12:35.378Z,8.9
2017-11-16T13:13:36.043Z,8.9
2017-11-16T13:14:36.695Z,8.9
2017-11-16T13:15:37.353Z,8.8
2017-11-16T13:16:38.013Z,8.9
2017-11-16T13:17:38.705Z,8.8
2017-11-16T13:18:39.362Z,8.8
2017-11-16T13:19:40.020Z,8.9
2017-11-16T13:20:40.677Z,8.9
2017-11-16T13:21:41.336Z,8.9
2017-11-16T13:22:41.994Z,8.8
2017-11-16T13:23:42.650Z,8.8
2017-11-16T13:24:43.306Z,8.7
2017-11-16T13:25:43.964Z,8.7
2017-11-16T13:26:44.620Z,8.8
2017-11-16T13:27:45.280Z,8.8
2017-11-16T13:28:45.935Z,8.7
2017-11-16T13:29:46.589Z,8.8
2017-11-16T13:30:47.247Z,8.8
2017-11-16T13:31:47.905Z,8.9
2017-11-16T13:32:48.561Z,8.9
2017-11-16T13:33:49.219Z,8.9
2017-11-16T13:34:49.876Z,8.8
2017-11-16T13:35:50.531Z,8.8
2017-11-16T13:36:51.190Z,8.8
2017-11-16T13:37:51.845Z,8.8
2017-11-16T13:38:52.502Z,8.8
2017-11-16T13:39:53.159Z,8.7
2017-11-16T13:40:53.816Z,8.7
2017-11-16T13:41:54.473Z,8.7
2017-11-16T13:42:55.130Z,8.7
2017-11-16T13:43:55.786Z,8.7
2017-11-16T13:44:56.443Z,8.7
2017-11-16T13:45:57.100Z,8.7
2017-11-16T13:46:57.761Z,8.7
2017-11-16T13:47:58.415Z,8.7
2017-11-16T13:48:59.071Z,8.8
2017-11-16T13:49:59.728Z,8.8
2017-11-16T13:51:00.385Z,8.8
2017-11-16T13:52:01.052Z,8.8
2017-11-16T13:53:01.704Z,8.8
2017-11-16T13:54:02.359Z,8.8
2017-11-16T13:55:03.022Z,8.7
2017-11-16T13:56:03.705Z,8.8
2017-11-16T13:57:04.363Z,8.8